sensor_id;sensor_type;location;lat;lon;timestamp;P1;durP1;ratioP1;P2;durP2;ratioP2
61330;SDS011;57640;52.472;-1.950;2022-07-29T08:09:39;6.15;;;1.75;;
61330;SDS011;57640;52.472;-1.950;2022-07-29T08:12:12;4.45;;;1.92;;
61330;SDS011;57640;52.472;-1.950;2022-07-29T08:14:45;9.10;;;1.73;;
61330;SDS011;57640;52.472;-1.950;2022-07-29T08:17:23;5.65;;;1.75;;
61330;SDS011;57640;52.472;-1.950;2022-07-29T08:19:55;7.93;;;1.98;;
61330;SDS011;57640;52.472;-1.950;2022-07-29T08:22:29;3.90;;;1.80;;
61330;SDS011;57640;52.472;-1.950;2022-07-29T08:25:09;4.18;;;1.90;;
61330;SDS011;57640;52.472;-1.950;2022-07-29T08:27:45;5.95;;;2.22;;
61330;SDS011;57640;52.472;-1.950;2022-07-29T08:30:18;6.55;;;1.65;;
61330;SDS011;57640;52.472;-1.950;2022-07-29T08:32:53;4.35;;;1.63;;
61330;SDS011;57640;52.472;-1.950;2022-07-29T08:35:24;3.58;;;1.60;;
61330;SDS011;57640;52.472;-1.950;2022-07-29T08:38:02;3.63;;;1.60;;
61330;SDS011;57640;52.472;-1.950;2022-07-29T08:40:40;4.05;;;1.80;;
61330;SDS011;57640;52.472;-1.950;2022-07-29T08:43:17;5.40;;;1.70;;
61330;SDS011;57640;52.472;-1.950;2022-07-29T08:45:53;5.45;;;1.70;;
61330;SDS011;57640;52.472;-1.950;2022-07-29T08:48:26;2.53;;;1.70;;
61330;SDS011;57640;52.472;-1.950;2022-07-29T08:51:01;8.18;;;1.80;;
61330;SDS011;57640;52.472;-1.950;2022-07-29T08:53:33;5.10;;;1.73;;
61330;SDS011;57640;52.472;-1.950;2022-07-29T08:56:10;7.05;;;1.70;;
61330;SDS011;57640;52.472;-1.950;2022-07-29T08:58:48;7.47;;;1.90;;
61330;SDS011;57640;52.472;-1.950;2022-07-29T09:01:24;6.45;;;2.10;;
61330;SDS011;57640;52.472;-1.950;2022-07-29T09:04:00;5.80;;;1.85;;
61330;SDS011;57640;52.472;-1.950;2022-07-29T09:06:43;3.88;;;1.60;;
61330;SDS011;57640;52.472;-1.950;2022-07-29T09:09:19;5.80;;;1.80;;
61330;SDS011;57640;52.472;-1.950;2022-07-29T09:11:56;8.00;;;1.70;;
61330;SDS011;57640;52.472;-1.950;2022-07-29T09:14:28;5.82;;;1.70;;
61330;SDS011;57640;52.472;-1.950;2022-07-29T09:16:58;6.97;;;2.00;;
61330;SDS011;57640;52.472;-1.950;2022-07-29T09:19:30;4.43;;;1.50;;
61330;SDS011;57640;52.472;-1.950;2022-07-29T09:22:01;4.55;;;1.58;;
61330;SDS011;57640;52.472;-1.950;2022-07-29T09:24:36;5.50;;;1.60;;
61330;SDS011;57640;52.472;-1.950;2022-07-29T09:27:18;3.30;;;1.55;;
61330;SDS011;57640;52.472;-1.950;2022-07-29T09:29:57;4.15;;;1.58;;
61330;SDS011;57640;52.472;-1.950;2022-07-29T09:32:27;6.00;;;1.65;;
61330;SDS011;57640;52.472;-1.950;2022-07-29T09:37:50;5.18;;;1.67;;
61330;SDS011;57640;52.472;-1.950;2022-07-29T09:40:22;4.30;;;1.85;;
61330;SDS011;57640;52.472;-1.950;2022-07-29T09:42:55;6.22;;;1.67;;
61330;SDS011;57640;52.472;-1.950;2022-07-29T09:45:28;2.45;;;1.52;;
61330;SDS011;57640;52.472;-1.950;2022-07-29T09:47:59;2.13;;;1.42;;
61330;SDS011;57640;52.472;-1.950;2022-07-29T09:50:34;3.40;;;1.63;;
61330;SDS011;57640;52.472;-1.950;2022-07-29T09:53:07;3.05;;;1.60;;
61330;SDS011;57640;52.472;-1.950;2022-07-29T09:55:47;3.95;;;1.77;;
61330;SDS011;57640;52.472;-1.950;2022-07-29T09:58:22;4.85;;;2.08;;
61330;SDS011;57640;52.472;-1.950;2022-07-29T10:00:52;4.85;;;1.73;;
61330;SDS011;57640;52.472;-1.950;2022-07-29T10:03:25;6.47;;;1.83;;
61330;SDS011;57640;52.472;-1.950;2022-07-29T10:06:05;3.80;;;1.85;;
61330;SDS011;57640;52.472;-1.950;2022-07-29T10:08:38;5.18;;;2.05;;
61330;SDS011;57640;52.472;-1.950;2022-07-29T10:11:10;5.65;;;2.03;;
61330;SDS011;57640;52.472;-1.950;2022-07-29T10:13:46;4.50;;;2.00;;
61330;SDS011;57640;52.472;-1.950;2022-07-29T10:16:18;2.92;;;1.83;;
61330;SDS011;57640;52.472;-1.950;2022-07-29T10:18:48;12.60;;;2.30;;
61330;SDS011;57640;52.472;-1.950;2022-07-29T10:21:19;5.93;;;2.10;;
61330;SDS011;57640;52.472;-1.950;2022-07-29T10:23:51;15.02;;;2.60;;
61330;SDS011;57640;52.472;-1.950;2022-07-29T10:26:21;14.27;;;2.67;;
61330;SDS011;57640;52.472;-1.950;2022-07-29T10:28:56;7.45;;;2.00;;
61330;SDS011;57640;52.472;-1.950;2022-07-29T10:31:28;13.30;;;2.40;;
61330;SDS011;57640;52.472;-1.950;2022-07-29T10:36:42;7.35;;;2.35;;
61330;SDS011;57640;52.472;-1.950;2022-07-29T10:39:21;7.45;;;2.33;;
61330;SDS011;57640;52.472;-1.950;2022-07-29T10:42:11;7.78;;;2.30;;
61330;SDS011;57640;52.472;-1.950;2022-07-29T10:44:49;7.97;;;2.20;;
61330;SDS011;57640;52.472;-1.950;2022-07-29T10:47:22;6.88;;;2.33;;
61330;SDS011;57640;52.472;-1.950;2022-07-29T10:49:55;5.28;;;2.42;;
61330;SDS011;57640;52.472;-1.950;2022-07-29T10:55:30;10.48;;;2.10;;
61330;SDS011;57640;52.472;-1.950;2022-07-29T10:58:15;7.57;;;1.98;;
61330;SDS011;57640;52.472;-1.950;2022-07-29T11:00:51;6.90;;;2.03;;
61330;SDS011;57640;52.472;-1.950;2022-07-29T11:06:17;5.28;;;2.03;;
61330;SDS011;57640;52.472;-1.950;2022-07-29T11:08:47;8.30;;;2.10;;
61330;SDS011;57640;52.472;-1.950;2022-07-29T11:11:48;6.43;;;1.98;;
61330;SDS011;57640;52.472;-1.950;2022-07-29T11:14:30;9.63;;;2.10;;
61330;SDS011;57640;52.472;-1.950;2022-07-29T11:17:27;7.60;;;2.10;;
61330;SDS011;57640;52.472;-1.950;2022-07-29T11:22:58;9.77;;;2.70;;
61330;SDS011;57640;52.472;-1.950;2022-07-29T11:25:30;9.73;;;2.97;;
61330;SDS011;57640;52.472;-1.950;2022-07-29T11:28:08;6.03;;;2.53;;
61330;SDS011;57640;52.472;-1.950;2022-07-29T11:30:50;5.40;;;2.47;;
61330;SDS011;57640;52.472;-1.950;2022-07-29T11:33:34;5.93;;;2.38;;
61330;SDS011;57640;52.472;-1.950;2022-07-29T11:36:08;8.60;;;2.50;;
61330;SDS011;57640;52.472;-1.950;2022-07-29T11:38:41;10.45;;;2.55;;
61330;SDS011;57640;52.472;-1.950;2022-07-29T11:41:23;11.77;;;2.63;;
61330;SDS011;57640;52.472;-1.950;2022-07-29T11:43:58;8.82;;;2.78;;
61330;SDS011;57640;52.472;-1.950;2022-07-29T11:49:23;7.35;;;2.50;;
61330;SDS011;57640;52.472;-1.950;2022-07-29T11:51:57;6.80;;;2.50;;
61330;SDS011;57640;52.472;-1.950;2022-07-29T11:54:31;7.38;;;2.60;;
61330;SDS011;57640;52.472;-1.950;2022-07-29T11:57:02;7.05;;;2.50;;
61330;SDS011;57640;52.472;-1.950;2022-07-29T11:59:39;6.35;;;2.50;;
61330;SDS011;57640;52.472;-1.950;2022-07-29T12:02:10;6.75;;;2.30;;
61330;SDS011;57640;52.472;-1.950;2022-07-29T12:04:50;7.75;;;2.40;;
61330;SDS011;57640;52.472;-1.950;2022-07-29T12:07:26;5.35;;;2.13;;
61330;SDS011;57640;52.472;-1.950;2022-07-29T12:09:56;7.70;;;2.15;;
61330;SDS011;57640;52.472;-1.950;2022-07-29T12:12:28;3.97;;;2.15;;
61330;SDS011;57640;52.472;-1.950;2022-07-29T12:15:09;8.35;;;2.90;;
61330;SDS011;57640;52.472;-1.950;2022-07-29T12:17:43;5.50;;;2.20;;
61330;SDS011;57640;52.472;-1.950;2022-07-29T12:20:24;4.97;;;2.10;;
61330;SDS011;57640;52.472;-1.950;2022-07-29T12:22:56;7.00;;;2.22;;
61330;SDS011;57640;52.472;-1.950;2022-07-29T12:25:28;3.95;;;2.30;;
61330;SDS011;57640;52.472;-1.950;2022-07-29T12:28:05;4.30;;;2.40;;
61330;SDS011;57640;52.472;-1.950;2022-07-29T12:30:39;7.45;;;2.33;;
61330;SDS011;57640;52.472;-1.950;2022-07-29T12:33:13;9.23;;;2.33;;
61330;SDS011;57640;52.472;-1.950;2022-07-29T12:35:50;10.70;;;2.50;;
61330;SDS011;57640;52.472;-1.950;2022-07-29T12:38:25;4.80;;;2.60;;
61330;SDS011;57640;52.472;-1.950;2022-07-29T12:40:57;5.82;;;2.50;;
61330;SDS011;57640;52.472;-1.950;2022-07-29T12:43:29;8.07;;;2.13;;
61330;SDS011;57640;52.472;-1.950;2022-07-29T12:46:11;7.50;;;2.53;;
61330;SDS011;57640;52.472;-1.950;2022-07-29T12:48:44;5.75;;;2.50;;
61330;SDS011;57640;52.472;-1.950;2022-07-29T12:51:18;10.02;;;2.45;;
61330;SDS011;57640;52.472;-1.950;2022-07-29T12:54:04;7.05;;;2.45;;
61330;SDS011;57640;52.472;-1.950;2022-07-29T12:56:38;6.68;;;2.72;;
61330;SDS011;57640;52.472;-1.950;2022-07-29T12:59:16;6.68;;;2.72;;
61330;SDS011;57640;52.472;-1.950;2022-07-29T13:01:49;6.35;;;2.25;;
61330;SDS011;57640;52.472;-1.950;2022-07-29T13:04:26;5.75;;;2.45;;
61330;SDS011;57640;52.472;-1.950;2022-07-29T13:07:02;5.68;;;2.70;;
61330;SDS011;57640;52.472;-1.950;2022-07-29T13:09:37;8.02;;;2.70;;
61330;SDS011;57640;52.472;-1.950;2022-07-29T13:12:10;7.47;;;2.70;;
61330;SDS011;57640;52.472;-1.950;2022-07-29T13:14:41;7.00;;;2.63;;
61330;SDS011;57640;52.472;-1.950;2022-07-29T13:17:15;8.68;;;2.53;;
61330;SDS011;57640;52.472;-1.950;2022-07-29T13:19:49;11.32;;;3.40;;
61330;SDS011;57640;52.472;-1.950;2022-07-29T13:22:22;9.63;;;3.55;;
61330;SDS011;57640;52.472;-1.950;2022-07-29T13:24:55;7.85;;;3.30;;
61330;SDS011;57640;52.472;-1.950;2022-07-29T13:27:30;7.82;;;3.22;;
61330;SDS011;57640;52.472;-1.950;2022-07-29T13:30:03;9.38;;;3.25;;
61330;SDS011;57640;52.472;-1.950;2022-07-29T13:32:36;8.90;;;2.88;;
61330;SDS011;57640;52.472;-1.950;2022-07-29T13:35:08;7.85;;;3.33;;
61330;SDS011;57640;52.472;-1.950;2022-07-29T13:37:43;6.15;;;3.17;;
61330;SDS011;57640;52.472;-1.950;2022-07-29T13:40:27;6.40;;;3.17;;
61330;SDS011;57640;52.472;-1.950;2022-07-29T13:42:59;6.65;;;3.20;;
61330;SDS011;57640;52.472;-1.950;2022-07-29T13:45:29;6.40;;;3.20;;
61330;SDS011;57640;52.472;-1.950;2022-07-29T13:48:01;5.65;;;2.85;;
61330;SDS011;57640;52.472;-1.950;2022-07-29T13:50:34;4.97;;;2.80;;
61330;SDS011;57640;52.472;-1.950;2022-07-29T13:53:06;6.57;;;3.00;;
61330;SDS011;57640;52.472;-1.950;2022-07-29T13:55:38;8.27;;;2.72;;
61330;SDS011;57640;52.472;-1.950;2022-07-29T13:58:07;6.68;;;2.92;;
61330;SDS011;57640;52.472;-1.950;2022-07-29T14:00:40;6.38;;;2.88;;
61330;SDS011;57640;52.472;-1.950;2022-07-29T14:03:10;5.55;;;2.88;;
61330;SDS011;57640;52.472;-1.950;2022-07-29T14:05:42;7.03;;;2.80;;
61330;SDS011;57640;52.472;-1.950;2022-07-29T14:08:16;6.72;;;3.00;;
61330;SDS011;57640;52.472;-1.950;2022-07-29T14:10:48;5.82;;;2.60;;
61330;SDS011;57640;52.472;-1.950;2022-07-29T14:13:19;5.25;;;3.10;;
61330;SDS011;57640;52.472;-1.950;2022-07-29T14:15:49;6.18;;;2.95;;
61330;SDS011;57640;52.472;-1.950;2022-07-29T14:18:21;7.22;;;3.20;;
61330;SDS011;57640;52.472;-1.950;2022-07-29T14:20:51;8.23;;;2.90;;
61330;SDS011;57640;52.472;-1.950;2022-07-29T14:23:25;5.93;;;3.00;;
61330;SDS011;57640;52.472;-1.950;2022-07-29T14:25:56;7.38;;;2.83;;
61330;SDS011;57640;52.472;-1.950;2022-07-29T14:28:27;6.78;;;2.60;;
61330;SDS011;57640;52.472;-1.950;2022-07-29T14:31:00;6.20;;;3.00;;
61330;SDS011;57640;52.472;-1.950;2022-07-29T14:33:32;6.78;;;3.08;;
61330;SDS011;57640;52.472;-1.950;2022-07-29T14:36:02;5.95;;;2.70;;
61330;SDS011;57640;52.472;-1.950;2022-07-29T14:38:37;4.85;;;2.72;;
61330;SDS011;57640;52.472;-1.950;2022-07-29T14:41:07;4.93;;;2.63;;
61330;SDS011;57640;52.472;-1.950;2022-07-29T14:43:39;5.95;;;3.10;;
61330;SDS011;57640;52.472;-1.950;2022-07-29T14:46:10;5.65;;;3.13;;
61330;SDS011;57640;52.472;-1.950;2022-07-29T14:48:42;5.53;;;2.65;;
61330;SDS011;57640;52.472;-1.950;2022-07-29T14:51:12;4.55;;;2.78;;
61330;SDS011;57640;52.472;-1.950;2022-07-29T14:53:47;2.88;;;2.40;;
61330;SDS011;57640;52.472;-1.950;2022-07-29T14:56:19;6.20;;;2.78;;
61330;SDS011;57640;52.472;-1.950;2022-07-29T14:58:50;6.05;;;2.70;;
61330;SDS011;57640;52.472;-1.950;2022-07-29T15:01:22;5.47;;;2.80;;
61330;SDS011;57640;52.472;-1.950;2022-07-29T15:03:54;5.22;;;2.90;;
61330;SDS011;57640;52.472;-1.950;2022-07-29T15:06:27;6.93;;;2.85;;
61330;SDS011;57640;52.472;-1.950;2022-07-29T15:09:01;4.40;;;2.90;;
61330;SDS011;57640;52.472;-1.950;2022-07-29T15:11:33;4.03;;;2.50;;
61330;SDS011;57640;52.472;-1.950;2022-07-29T15:14:05;4.88;;;2.45;;
61330;SDS011;57640;52.472;-1.950;2022-07-29T15:16:35;4.70;;;2.70;;
61330;SDS011;57640;52.472;-1.950;2022-07-29T15:19:07;4.82;;;2.80;;
61330;SDS011;57640;52.472;-1.950;2022-07-29T15:21:40;4.45;;;2.50;;
61330;SDS011;57640;52.472;-1.950;2022-07-29T15:24:14;4.28;;;2.80;;
61330;SDS011;57640;52.472;-1.950;2022-07-29T15:26:47;6.07;;;2.70;;
61330;SDS011;57640;52.472;-1.950;2022-07-29T15:29:19;3.97;;;2.80;;
61330;SDS011;57640;52.472;-1.950;2022-07-29T15:31:49;5.45;;;2.80;;
61330;SDS011;57640;52.472;-1.950;2022-07-29T15:34:21;3.80;;;2.60;;
61330;SDS011;57640;52.472;-1.950;2022-07-29T15:36:53;3.80;;;2.67;;
61330;SDS011;57640;52.472;-1.950;2022-07-29T15:39:28;5.78;;;2.67;;
61330;SDS011;57640;52.472;-1.950;2022-07-29T15:41:58;10.38;;;3.17;;
61330;SDS011;57640;52.472;-1.950;2022-07-29T15:44:32;11.05;;;3.30;;
61330;SDS011;57640;52.472;-1.950;2022-07-29T15:47:08;10.38;;;3.15;;
61330;SDS011;57640;52.472;-1.950;2022-07-29T15:49:40;7.53;;;3.22;;
61330;SDS011;57640;52.472;-1.950;2022-07-29T15:52:12;6.93;;;3.10;;
61330;SDS011;57640;52.472;-1.950;2022-07-29T15:54:47;8.30;;;2.97;;
61330;SDS011;57640;52.472;-1.950;2022-07-29T15:57:17;6.68;;;3.05;;
61330;SDS011;57640;52.472;-1.950;2022-07-29T15:59:49;6.80;;;2.95;;
61330;SDS011;57640;52.472;-1.950;2022-07-29T16:02:18;7.20;;;2.90;;
61330;SDS011;57640;52.472;-1.950;2022-07-29T16:04:51;7.47;;;2.88;;
61330;SDS011;57640;52.472;-1.950;2022-07-29T16:07:24;4.57;;;2.75;;
61330;SDS011;57640;52.472;-1.950;2022-07-29T16:09:57;7.28;;;3.08;;
61330;SDS011;57640;52.472;-1.950;2022-07-29T16:12:29;5.03;;;2.90;;
61330;SDS011;57640;52.472;-1.950;2022-07-29T16:15:01;6.85;;;2.70;;
61330;SDS011;57640;52.472;-1.950;2022-07-29T16:17:32;6.82;;;2.90;;
61330;SDS011;57640;52.472;-1.950;2022-07-29T16:20:04;6.82;;;3.10;;
61330;SDS011;57640;52.472;-1.950;2022-07-29T16:22:36;7.88;;;3.00;;
61330;SDS011;57640;52.472;-1.950;2022-07-29T16:25:09;5.45;;;2.80;;
61330;SDS011;57640;52.472;-1.950;2022-07-29T16:27:42;12.73;;;3.00;;
61330;SDS011;57640;52.472;-1.950;2022-07-29T16:30:14;6.00;;;3.25;;
61330;SDS011;57640;52.472;-1.950;2022-07-29T16:32:45;9.32;;;3.47;;
61330;SDS011;57640;52.472;-1.950;2022-07-29T16:35:17;5.07;;;3.00;;
61330;SDS011;57640;52.472;-1.950;2022-07-29T16:37:49;5.53;;;3.10;;
61330;SDS011;57640;52.472;-1.950;2022-07-29T16:40:22;6.93;;;2.80;;
61330;SDS011;57640;52.472;-1.950;2022-07-29T16:42:54;5.55;;;3.40;;
61330;SDS011;57640;52.472;-1.950;2022-07-29T16:45:26;5.50;;;3.03;;
61330;SDS011;57640;52.472;-1.950;2022-07-29T16:47:56;6.40;;;2.90;;
61330;SDS011;57640;52.472;-1.950;2022-07-29T16:50:29;6.75;;;2.75;;
61330;SDS011;57640;52.472;-1.950;2022-07-29T16:53:00;5.95;;;2.75;;
61330;SDS011;57640;52.472;-1.950;2022-07-29T16:55:35;4.50;;;2.63;;
61330;SDS011;57640;52.472;-1.950;2022-07-29T16:58:05;6.25;;;2.85;;
61330;SDS011;57640;52.472;-1.950;2022-07-29T17:00:37;5.55;;;2.53;;
61330;SDS011;57640;52.472;-1.950;2022-07-29T17:03:10;4.88;;;2.60;;
61330;SDS011;57640;52.472;-1.950;2022-07-29T17:05:42;6.53;;;3.00;;
61330;SDS011;57640;52.472;-1.950;2022-07-29T17:08:14;6.82;;;3.10;;
61330;SDS011;57640;52.472;-1.950;2022-07-29T17:10:47;7.50;;;3.10;;
61330;SDS011;57640;52.472;-1.950;2022-07-29T17:13:18;4.07;;;3.10;;
61330;SDS011;57640;52.472;-1.950;2022-07-29T17:15:48;3.63;;;2.80;;
61330;SDS011;57640;52.472;-1.950;2022-07-29T17:18:20;6.40;;;3.10;;
61330;SDS011;57640;52.472;-1.950;2022-07-29T17:20:49;5.13;;;2.72;;
61330;SDS011;57640;52.472;-1.950;2022-07-29T17:23:21;5.90;;;3.08;;
61330;SDS011;57640;52.472;-1.950;2022-07-29T17:25:53;8.25;;;2.70;;
61330;SDS011;57640;52.472;-1.950;2022-07-29T17:28:25;7.03;;;2.60;;
61330;SDS011;57640;52.472;-1.950;2022-07-29T17:30:57;38.10;;;6.18;;
61330;SDS011;57640;52.472;-1.950;2022-07-29T17:33:29;20.00;;;4.85;;
61330;SDS011;57640;52.472;-1.950;2022-07-29T17:36:00;13.30;;;3.65;;
61330;SDS011;57640;52.472;-1.950;2022-07-29T17:38:44;6.97;;;2.97;;
61330;SDS011;57640;52.472;-1.950;2022-07-29T17:41:18;10.95;;;3.13;;
61330;SDS011;57640;52.472;-1.950;2022-07-29T17:43:50;13.32;;;3.88;;
61330;SDS011;57640;52.472;-1.950;2022-07-29T17:46:22;10.88;;;3.72;;
61330;SDS011;57640;52.472;-1.950;2022-07-29T17:48:55;11.30;;;4.18;;
61330;SDS011;57640;52.472;-1.950;2022-07-29T17:51:25;8.57;;;3.45;;
61330;SDS011;57640;52.472;-1.950;2022-07-29T17:53:56;8.35;;;3.40;;
61330;SDS011;57640;52.472;-1.950;2022-07-29T17:56:31;15.07;;;3.63;;
61330;SDS011;57640;52.472;-1.950;2022-07-29T17:59:03;10.23;;;3.40;;
61330;SDS011;57640;52.472;-1.950;2022-07-29T18:01:36;9.77;;;3.10;;
61330;SDS011;57640;52.472;-1.950;2022-07-29T18:04:06;7.40;;;3.17;;
61330;SDS011;57640;52.472;-1.950;2022-07-29T18:06:38;10.27;;;3.50;;
61330;SDS011;57640;52.472;-1.950;2022-07-29T18:09:08;15.07;;;3.47;;
61330;SDS011;57640;52.472;-1.950;2022-07-29T18:11:42;13.15;;;3.20;;
61330;SDS011;57640;52.472;-1.950;2022-07-29T18:14:15;8.55;;;3.10;;
61330;SDS011;57640;52.472;-1.950;2022-07-29T18:16:47;9.32;;;2.90;;
61330;SDS011;57640;52.472;-1.950;2022-07-29T18:19:17;7.93;;;3.03;;
61330;SDS011;57640;52.472;-1.950;2022-07-29T18:21:49;10.43;;;3.20;;
61330;SDS011;57640;52.472;-1.950;2022-07-29T18:24:21;7.82;;;2.97;;
61330;SDS011;57640;52.472;-1.950;2022-07-29T18:26:56;6.88;;;3.42;;
61330;SDS011;57640;52.472;-1.950;2022-07-29T18:29:28;7.53;;;3.45;;
61330;SDS011;57640;52.472;-1.950;2022-07-29T18:31:58;14.45;;;3.60;;
61330;SDS011;57640;52.472;-1.950;2022-07-29T18:34:30;9.85;;;3.60;;
61330;SDS011;57640;52.472;-1.950;2022-07-29T18:37:02;6.72;;;3.45;;
61330;SDS011;57640;52.472;-1.950;2022-07-29T18:39:32;8.02;;;3.50;;
61330;SDS011;57640;52.472;-1.950;2022-07-29T18:42:07;6.65;;;3.20;;
61330;SDS011;57640;52.472;-1.950;2022-07-29T18:44:37;7.30;;;3.30;;
61330;SDS011;57640;52.472;-1.950;2022-07-29T18:47:08;7.60;;;3.30;;
61330;SDS011;57640;52.472;-1.950;2022-07-29T18:49:38;7.28;;;3.17;;
61330;SDS011;57640;52.472;-1.950;2022-07-29T18:52:09;8.07;;;3.10;;
61330;SDS011;57640;52.472;-1.950;2022-07-29T18:54:39;6.78;;;3.30;;
61330;SDS011;57640;52.472;-1.950;2022-07-29T18:57:14;4.47;;;3.05;;
61330;SDS011;57640;52.472;-1.950;2022-07-29T18:59:46;8.73;;;3.45;;
61330;SDS011;57640;52.472;-1.950;2022-07-29T19:02:16;7.20;;;3.28;;
61330;SDS011;57640;52.472;-1.950;2022-07-29T19:04:47;8.13;;;3.20;;
61330;SDS011;57640;52.472;-1.950;2022-07-29T19:07:20;8.07;;;3.20;;
61330;SDS011;57640;52.472;-1.950;2022-07-29T19:09:51;7.68;;;3.10;;
61330;SDS011;57640;52.472;-1.950;2022-07-29T19:12:25;5.68;;;3.03;;
61330;SDS011;57640;52.472;-1.950;2022-07-29T19:14:55;10.35;;;3.10;;
61330;SDS011;57640;52.472;-1.950;2022-07-29T19:17:27;8.90;;;3.00;;
61330;SDS011;57640;52.472;-1.950;2022-07-29T19:19:57;7.30;;;3.05;;
61330;SDS011;57640;52.472;-1.950;2022-07-29T19:22:29;5.63;;;2.92;;
61330;SDS011;57640;52.472;-1.950;2022-07-29T19:25:01;7.57;;;3.15;;
61330;SDS011;57640;52.472;-1.950;2022-07-29T19:27:35;6.72;;;3.10;;
61330;SDS011;57640;52.472;-1.950;2022-07-29T19:30:08;7.72;;;3.22;;
61330;SDS011;57640;52.472;-1.950;2022-07-29T19:32:38;7.57;;;3.10;;
61330;SDS011;57640;52.472;-1.950;2022-07-29T19:35:10;7.90;;;3.25;;
61330;SDS011;57640;52.472;-1.950;2022-07-29T19:37:53;8.05;;;3.10;;
61330;SDS011;57640;52.472;-1.950;2022-07-29T19:40:26;8.32;;;3.33;;
61330;SDS011;57640;52.472;-1.950;2022-07-29T19:43:01;7.65;;;3.10;;
61330;SDS011;57640;52.472;-1.950;2022-07-29T19:45:31;5.65;;;2.80;;
61330;SDS011;57640;52.472;-1.950;2022-07-29T19:48:03;4.95;;;2.83;;
61330;SDS011;57640;52.472;-1.950;2022-07-29T19:50:36;6.07;;;2.88;;
61330;SDS011;57640;52.472;-1.950;2022-07-29T19:53:08;4.63;;;2.80;;
61330;SDS011;57640;52.472;-1.950;2022-07-29T19:55:40;6.75;;;3.05;;
61330;SDS011;57640;52.472;-1.950;2022-07-29T19:58:15;6.88;;;3.10;;
61330;SDS011;57640;52.472;-1.950;2022-07-29T20:00:46;4.32;;;2.75;;
61330;SDS011;57640;52.472;-1.950;2022-07-29T20:03:19;4.72;;;3.25;;
61330;SDS011;57640;52.472;-1.950;2022-07-29T20:05:49;10.23;;;3.00;;
61330;SDS011;57640;52.472;-1.950;2022-07-29T20:08:21;6.43;;;3.00;;
61330;SDS011;57640;52.472;-1.950;2022-07-29T20:10:52;5.47;;;2.63;;
61330;SDS011;57640;52.472;-1.950;2022-07-29T20:13:27;7.45;;;3.13;;
61330;SDS011;57640;52.472;-1.950;2022-07-29T20:16:00;5.55;;;2.80;;
61330;SDS011;57640;52.472;-1.950;2022-07-29T20:18:34;6.13;;;3.00;;
61330;SDS011;57640;52.472;-1.950;2022-07-29T20:21:06;7.93;;;3.10;;
61330;SDS011;57640;52.472;-1.950;2022-07-29T20:23:38;5.35;;;2.70;;
61330;SDS011;57640;52.472;-1.950;2022-07-29T20:26:08;4.40;;;2.67;;
61330;SDS011;57640;52.472;-1.950;2022-07-29T20:28:43;4.35;;;2.75;;
61330;SDS011;57640;52.472;-1.950;2022-07-29T20:31:15;4.95;;;2.88;;
61330;SDS011;57640;52.472;-1.950;2022-07-29T20:33:47;3.85;;;2.78;;
61330;SDS011;57640;52.472;-1.950;2022-07-29T20:36:17;6.25;;;2.60;;
61330;SDS011;57640;52.472;-1.950;2022-07-29T20:38:49;7.53;;;3.00;;
61330;SDS011;57640;52.472;-1.950;2022-07-29T20:41:19;5.43;;;2.60;;
61330;SDS011;57640;52.472;-1.950;2022-07-29T20:43:54;4.70;;;2.90;;
61330;SDS011;57640;52.472;-1.950;2022-07-29T20:46:26;5.35;;;2.72;;
61330;SDS011;57640;52.472;-1.950;2022-07-29T20:48:56;5.72;;;3.08;;
61330;SDS011;57640;52.472;-1.950;2022-07-29T20:51:28;5.30;;;2.90;;
61330;SDS011;57640;52.472;-1.950;2022-07-29T20:53:57;5.22;;;3.17;;
61330;SDS011;57640;52.472;-1.950;2022-07-29T20:56:30;6.57;;;3.15;;
61330;SDS011;57640;52.472;-1.950;2022-07-29T20:59:05;6.82;;;2.92;;
61330;SDS011;57640;52.472;-1.950;2022-07-29T21:01:37;5.50;;;2.95;;
61330;SDS011;57640;52.472;-1.950;2022-07-29T21:04:07;5.15;;;3.10;;
61330;SDS011;57640;52.472;-1.950;2022-07-29T21:06:39;5.18;;;2.72;;
61330;SDS011;57640;52.472;-1.950;2022-07-29T21:09:09;5.20;;;2.55;;
61330;SDS011;57640;52.472;-1.950;2022-07-29T21:11:41;5.68;;;2.80;;
61330;SDS011;57640;52.472;-1.950;2022-07-29T21:14:15;4.95;;;2.88;;
61330;SDS011;57640;52.472;-1.950;2022-07-29T21:17:09;5.30;;;3.03;;
61330;SDS011;57640;52.472;-1.950;2022-07-29T21:19:41;4.40;;;2.72;;
61330;SDS011;57640;52.472;-1.950;2022-07-29T21:22:11;4.55;;;2.88;;
61330;SDS011;57640;52.472;-1.950;2022-07-29T21:24:45;3.28;;;2.70;;
61330;SDS011;57640;52.472;-1.950;2022-07-29T21:27:18;4.65;;;2.78;;
61330;SDS011;57640;52.472;-1.950;2022-07-29T21:30:03;4.47;;;2.50;;
61330;SDS011;57640;52.472;-1.950;2022-07-29T21:32:36;7.03;;;3.00;;
61330;SDS011;57640;52.472;-1.950;2022-07-29T21:35:08;3.75;;;2.80;;
61330;SDS011;57640;52.472;-1.950;2022-07-29T21:37:40;5.70;;;2.90;;
61330;SDS011;57640;52.472;-1.950;2022-07-29T21:40:10;4.07;;;2.80;;
61330;SDS011;57640;52.472;-1.950;2022-07-29T21:42:42;4.82;;;2.90;;
61330;SDS011;57640;52.472;-1.950;2022-07-29T21:45:16;7.53;;;3.30;;
61330;SDS011;57640;52.472;-1.950;2022-07-29T21:47:48;9.95;;;3.25;;
61330;SDS011;57640;52.472;-1.950;2022-07-29T21:50:18;3.95;;;2.78;;
61330;SDS011;57640;52.472;-1.950;2022-07-29T21:52:50;4.35;;;2.88;;
61330;SDS011;57640;52.472;-1.950;2022-07-29T21:55:20;4.43;;;2.80;;
61330;SDS011;57640;52.472;-1.950;2022-07-29T21:57:53;6.70;;;3.20;;
61330;SDS011;57640;52.472;-1.950;2022-07-29T22:00:28;5.30;;;2.90;;
61330;SDS011;57640;52.472;-1.950;2022-07-29T22:02:59;5.15;;;3.00;;
61330;SDS011;57640;52.472;-1.950;2022-07-29T22:05:31;5.97;;;2.83;;
61330;SDS011;57640;52.472;-1.950;2022-07-29T22:08:03;5.43;;;2.95;;
61330;SDS011;57640;52.472;-1.950;2022-07-29T22:10:34;5.15;;;3.10;;
